createdAt,value
2022-09-30T00:00:48.690Z,7.53
2022-09-30T00:03:15.325Z,11.85
2022-09-30T00:05:41.979Z,7.72
2022-09-30T00:08:08.565Z,11.30
2022-09-30T00:10:35.112Z,9.07
2022-09-30T00:13:01.861Z,7.68
2022-09-30T00:15:28.482Z,7.63
2022-09-30T00:17:55.594Z,8.55
2022-09-30T00:20:22.190Z,8.90
2022-09-30T00:22:48.716Z,7.55
2022-09-30T00:25:16.164Z,6.35
2022-09-30T00:27:42.724Z,9.80
2022-09-30T00:30:09.711Z,7.75
2022-09-30T00:32:36.335Z,7.47
2022-09-30T00:35:02.997Z,7.45
2022-09-30T00:37:29.614Z,10.75
2022-09-30T00:39:56.171Z,8.98
2022-09-30T00:42:22.963Z,14.77
2022-09-30T00:45:06.250Z,8.38
2022-09-30T00:47:33.820Z,13.05
2022-09-30T00:50:06.294Z,11.38
2022-09-30T00:52:34.096Z,19.08
2022-09-30T00:55:04.595Z,9.88
2022-09-30T00:57:31.188Z,10.65
2022-09-30T00:59:57.816Z,11.48
2022-09-30T01:02:24.615Z,11.70
2022-09-30T01:04:51.286Z,11.88
2022-09-30T01:07:17.927Z,11.88
2022-09-30T01:09:45.265Z,14.20
2022-09-30T01:12:16.958Z,10.60
2022-09-30T01:14:45.489Z,10.88
2022-09-30T01:17:34.267Z,12.75
2022-09-30T01:20:17.039Z,13.80
2022-09-30T01:23:13.028Z,11.20
2022-09-30T01:26:10.233Z,13.80
2022-09-30T01:28:52.026Z,12.43
2022-09-30T01:31:28.771Z,19.15
2022-09-30T01:34:06.345Z,12.38
2022-09-30T01:36:55.787Z,12.18
2022-09-30T01:39:41.888Z,15.45
2022-09-30T01:42:14.497Z,14.88
2022-09-30T01:45:09.273Z,12.88
2022-09-30T01:47:53.369Z,13.32
2022-09-30T01:50:28.060Z,12.95
2022-09-30T01:53:10.995Z,14.75
2022-09-30T01:55:46.178Z,14.93
2022-09-30T01:58:22.411Z,10.82
2022-09-30T02:00:53.434Z,10.05
2022-09-30T02:03:25.679Z,15.70
2022-09-30T02:05:58.816Z,16.38
2022-09-30T02:08:31.960Z,14.13
2022-09-30T02:11:04.810Z,17.88
2022-09-30T02:13:39.987Z,12.43
2022-09-30T02:16:13.963Z,11.23
2022-09-30T02:18:50.452Z,17.25
2022-09-30T02:21:23.626Z,13.48
2022-09-30T02:24:00.618Z,15.07
2022-09-30T02:26:31.479Z,13.98
2022-09-30T02:29:05.184Z,15.43
2022-09-30T02:31:36.398Z,14.80
2022-09-30T02:34:07.412Z,19.45
2022-09-30T02:36:40.591Z,13.63
2022-09-30T02:39:15.320Z,12.20
2022-09-30T02:41:48.696Z,14.73
2022-09-30T02:44:16.603Z,15.23
2022-09-30T02:46:56.938Z,11.45
2022-09-30T02:49:38.137Z,13.57
2022-09-30T02:52:24.659Z,15.80
2022-09-30T02:55:12.369Z,14.80
2022-09-30T02:57:57.660Z,16.23
2022-09-30T03:00:24.542Z,13.13
2022-09-30T03:02:59.757Z,14.60
2022-09-30T03:05:28.282Z,14.27
2022-09-30T03:07:56.539Z,18.10
2022-09-30T03:10:23.902Z,16.17
2022-09-30T03:13:25.748Z,17.67
2022-09-30T03:16:14.220Z,15.10
2022-09-30T03:18:40.814Z,17.55
2022-09-30T03:21:29.650Z,16.40
2022-09-30T03:24:22.528Z,16.80
2022-09-30T03:27:14.691Z,20.05
2022-09-30T03:29:42.260Z,20.15
2022-09-30T03:32:34.470Z,15.75
2022-09-30T03:35:31.619Z,15.23
2022-09-30T03:38:16.321Z,13.95
2022-09-30T03:40:57.854Z,12.95
2022-09-30T03:43:40.795Z,14.02
2022-09-30T03:46:37.923Z,12.45
2022-09-30T03:49:10.725Z,12.65
2022-09-30T03:51:39.818Z,15.57
2022-09-30T03:54:10.222Z,18.02
2022-09-30T03:56:43.373Z,12.13
2022-09-30T03:59:17.273Z,11.13
2022-09-30T04:01:43.963Z,13.98
2022-09-30T04:04:10.580Z,14.35
2022-09-30T04:06:37.295Z,12.60
2022-09-30T04:09:04.028Z,15.57
2022-09-30T04:11:30.730Z,12.80
2022-09-30T04:13:57.370Z,15.13
2022-09-30T04:16:24.380Z,12.63
2022-09-30T04:18:51.234Z,13.38
2022-09-30T04:21:17.878Z,12.85
2022-09-30T04:23:44.687Z,12.35
2022-09-30T04:26:13.357Z,12.27
2022-09-30T04:28:40.201Z,16.25
2022-09-30T04:31:07.373Z,16.25
2022-09-30T04:33:34.225Z,13.13
2022-09-30T04:36:01.351Z,16.20
2022-09-30T04:38:28.098Z,12.93
2022-09-30T04:40:55.407Z,14.07
2022-09-30T04:43:23.513Z,11.38
2022-09-30T04:45:53.420Z,12.52
2022-09-30T04:48:22.580Z,10.70
2022-09-30T04:50:49.814Z,11.18
2022-09-30T04:53:18.003Z,11.10
2022-09-30T04:55:45.638Z,13.18
2022-09-30T04:58:12.930Z,14.00
2022-09-30T05:00:39.861Z,13.57
2022-09-30T05:03:06.993Z,14.50
2022-09-30T05:05:34.031Z,12.55
2022-09-30T05:08:02.562Z,13.25
2022-09-30T05:10:30.038Z,13.60
2022-09-30T05:12:58.029Z,14.95
2022-09-30T05:15:25.341Z,15.48
2022-09-30T05:17:53.237Z,12.68
2022-09-30T05:20:21.413Z,15.02
2022-09-30T05:22:53.545Z,17.52
2022-09-30T05:25:20.182Z,14.02
2022-09-30T05:27:49.796Z,16.27
2022-09-30T05:30:16.544Z,11.55
2022-09-30T05:32:43.151Z,13.65
2022-09-30T05:35:12.048Z,12.65
2022-09-30T05:37:38.955Z,15.27
2022-09-30T05:40:07.408Z,18.17
2022-09-30T05:42:35.959Z,13.40
2022-09-30T05:45:07.180Z,16.08
2022-09-30T05:47:34.283Z,15.15
2022-09-30T05:50:00.867Z,22.13
2022-09-30T05:52:28.363Z,14.18
2022-09-30T05:54:56.368Z,14.18
2022-09-30T05:57:22.972Z,18.65
2022-09-30T05:59:49.515Z,13.57
2022-09-30T06:02:16.103Z,15.38
2022-09-30T06:04:42.733Z,16.38
2022-09-30T06:07:10.610Z,19.75
2022-09-30T06:09:37.583Z,19.65
2022-09-30T06:12:06.228Z,24.40
2022-09-30T06:14:32.981Z,12.45
2022-09-30T06:17:00.627Z,9.88
2022-09-30T06:19:28.934Z,12.80
2022-09-30T06:21:55.466Z,8.77
2022-09-30T06:24:25.999Z,8.65
2022-09-30T06:26:52.601Z,8.27
2022-09-30T06:29:19.670Z,12.90
2022-09-30T06:31:46.326Z,8.32
2022-09-30T06:34:12.941Z,10.35
2022-09-30T06:36:39.514Z,8.02
2022-09-30T06:39:09.101Z,14.73
2022-09-30T06:41:42.453Z,11.18
2022-09-30T06:44:09.594Z,17.10
2022-09-30T06:46:42.694Z,17.45
2022-09-30T06:49:14.687Z,11.13
2022-09-30T06:51:41.995Z,11.40
2022-09-30T06:54:09.294Z,10.10
2022-09-30T06:56:36.943Z,12.65
2022-09-30T06:59:03.641Z,13.57
2022-09-30T07:01:30.262Z,15.85
2022-09-30T07:03:58.166Z,15.30
2022-09-30T07:06:26.880Z,9.68
2022-09-30T07:08:54.283Z,13.55
2022-09-30T07:11:21.471Z,12.20
2022-09-30T07:13:49.337Z,11.32
2022-09-30T07:16:18.166Z,10.60
2022-09-30T07:18:45.710Z,10.05
2022-09-30T07:21:15.831Z,8.88
2022-09-30T07:23:47.995Z,13.32
2022-09-30T07:26:17.632Z,9.30
2022-09-30T07:28:45.058Z,9.20
2022-09-30T07:31:34.272Z,8.57
2022-09-30T07:34:02.656Z,9.82
2022-09-30T07:36:33.198Z,9.15
2022-09-30T07:39:05.419Z,11.55
2022-09-30T07:41:32.812Z,11.60
2022-09-30T07:44:00.244Z,12.27
2022-09-30T07:46:31.586Z,13.18
2022-09-30T07:49:02.328Z,10.32
2022-09-30T07:51:33.314Z,13.93
2022-09-30T07:54:05.783Z,10.02
2022-09-30T07:56:51.217Z,14.63
2022-09-30T07:59:19.108Z,9.55
2022-09-30T08:01:46.271Z,9.75
2022-09-30T08:04:13.953Z,11.13
2022-09-30T08:06:45.584Z,12.18
2022-09-30T08:09:13.751Z,9.50
2022-09-30T08:11:41.363Z,10.70
2022-09-30T08:14:07.953Z,9.63
2022-09-30T08:16:34.770Z,8.90
2022-09-30T08:19:02.572Z,11.30
2022-09-30T08:21:29.758Z,13.50
2022-09-30T08:23:57.580Z,10.48
2022-09-30T08:26:25.297Z,12.73
2022-09-30T08:28:55.292Z,10.98
2022-09-30T08:31:23.998Z,10.63
2022-09-30T08:33:50.884Z,12.98
2022-09-30T08:36:20.468Z,11.73
2022-09-30T08:38:47.377Z,13.50
2022-09-30T08:41:29.326Z,11.80
2022-09-30T08:44:31.194Z,17.23
2022-09-30T08:47:29.552Z,17.42
2022-09-30T08:50:10.714Z,15.57
2022-09-30T08:52:49.053Z,18.83
2022-09-30T08:55:24.654Z,19.60
2022-09-30T08:57:53.579Z,20.92
2022-09-30T09:00:22.531Z,17.27
2022-09-30T09:02:55.841Z,18.88
2022-09-30T09:05:48.653Z,16.52
2022-09-30T09:08:33.069Z,18.55
2022-09-30T09:11:13.043Z,21.17
2022-09-30T09:13:46.342Z,20.35
2022-09-30T09:16:34.207Z,24.40
2022-09-30T09:19:17.815Z,19.65
2022-09-30T09:22:01.897Z,18.52
2022-09-30T09:24:43.571Z,20.08
2022-09-30T09:27:25.937Z,16.65
2022-09-30T09:30:09.920Z,11.88
2022-09-30T09:32:36.860Z,14.65
2022-09-30T09:35:15.387Z,18.75
2022-09-30T09:38:13.550Z,14.77
2022-09-30T09:41:01.043Z,12.63
2022-09-30T09:43:43.940Z,26.70
2022-09-30T09:46:18.265Z,14.05
2022-09-30T09:48:44.895Z,17.38
2022-09-30T09:51:11.547Z,16.73
2022-09-30T09:53:45.508Z,17.63
2022-09-30T09:56:18.289Z,18.83
2022-09-30T09:59:09.708Z,18.25
2022-09-30T10:01:41.335Z,19.95
2022-09-30T10:04:09.770Z,15.40
2022-09-30T10:06:44.754Z,18.77
2022-09-30T10:09:27.693Z,17.35
2022-09-30T10:12:14.196Z,20.13
2022-09-30T10:14:57.782Z,21.52
2022-09-30T10:17:27.133Z,23.50
2022-09-30T10:19:58.750Z,19.52
2022-09-30T10:22:28.991Z,16.35
2022-09-30T10:25:14.119Z,18.45
2022-09-30T10:27:58.527Z,21.80
2022-09-30T10:30:45.971Z,23.63
2022-09-30T10:33:19.340Z,22.65
2022-09-30T10:35:53.379Z,21.17
2022-09-30T10:38:20.372Z,21.00
2022-09-30T10:40:51.194Z,22.02
2022-09-30T10:43:23.629Z,22.42
2022-09-30T10:46:13.511Z,26.65
2022-09-30T10:48:40.543Z,22.42
2022-09-30T10:51:23.121Z,29.75
2022-09-30T10:53:49.922Z,29.15
2022-09-30T10:56:34.899Z,26.75
2022-09-30T10:59:04.336Z,33.67
2022-09-30T11:01:36.539Z,29.95
2022-09-30T11:04:17.687Z,39.03
2022-09-30T11:06:46.572Z,34.38
2022-09-30T11:09:16.453Z,33.67
2022-09-30T11:11:53.131Z,37.80
2022-09-30T11:14:29.819Z,38.30
2022-09-30T11:17:10.670Z,40.38
2022-09-30T11:19:45.319Z,32.80
2022-09-30T11:22:37.408Z,39.85
2022-09-30T11:25:10.187Z,35.85
2022-09-30T11:27:53.933Z,35.55
2022-09-30T11:30:30.313Z,42.20
2022-09-30T11:36:00.140Z,38.72
2022-09-30T11:38:52.710Z,37.90
2022-09-30T11:41:27.115Z,38.50
2022-09-30T11:44:27.092Z,37.72
2022-09-30T11:47:24.276Z,29.27
2022-09-30T11:50:21.458Z,33.15
2022-09-30T11:53:08.616Z,28.98
2022-09-30T11:55:55.134Z,31.05
2022-09-30T11:58:40.948Z,30.92
2022-09-30T12:01:32.817Z,30.88
2022-09-30T12:04:06.774Z,29.00
2022-09-30T12:06:36.582Z,32.33
2022-09-30T12:09:13.112Z,27.38
2022-09-30T12:11:57.439Z,28.50
2022-09-30T12:14:27.543Z,27.83
2022-09-30T12:16:57.846Z,28.20
2022-09-30T12:19:32.652Z,26.90
2022-09-30T12:22:05.568Z,28.38
2022-09-30T12:24:38.680Z,28.88
2022-09-30T12:27:15.344Z,29.30
2022-09-30T12:30:06.236Z,26.30
2022-09-30T12:32:40.745Z,20.73
2022-09-30T12:35:38.085Z,20.10
2022-09-30T12:41:07.896Z,27.70
2022-09-30T12:43:54.466Z,35.92
2022-09-30T12:46:51.674Z,36.67
2022-09-30T12:51:53.309Z,31.60
2022-09-30T12:54:26.850Z,25.77
2022-09-30T12:56:56.977Z,18.75
2022-09-30T12:59:30.537Z,13.25
2022-09-30T13:01:58.498Z,13.18
2022-09-30T13:04:34.561Z,15.63
2022-09-30T13:07:01.183Z,13.50
2022-09-30T13:09:36.098Z,9.27
2022-09-30T13:12:02.800Z,6.07
2022-09-30T13:14:43.348Z,6.63
2022-09-30T13:17:11.370Z,5.00
2022-09-30T13:19:40.907Z,3.30
2022-09-30T13:22:42.650Z,7.30
2022-09-30T13:25:15.225Z,6.50
2022-09-30T13:28:03.204Z,6.80
2022-09-30T13:30:34.683Z,4.47
2022-09-30T13:33:02.335Z,8.80
2022-09-30T13:35:44.264Z,8.55
2022-09-30T13:38:11.871Z,6.97
2022-09-30T13:41:03.911Z,7.82
2022-09-30T13:43:43.578Z,7.72
2022-09-30T13:46:43.357Z,8.52
2022-09-30T13:49:14.074Z,5.95
2022-09-30T13:51:42.311Z,5.97
2022-09-30T13:54:29.918Z,7.18
2022-09-30T13:56:56.826Z,4.68
2022-09-30T13:59:31.657Z,4.25
2022-09-30T14:02:29.386Z,8.27
2022-09-30T14:05:05.171Z,4.95
2022-09-30T14:08:07.076Z,7.65
2022-09-30T14:10:50.071Z,9.70
2022-09-30T14:13:42.079Z,11.50
2022-09-30T15:05:24.348Z,15.30
2022-09-30T15:07:54.805Z,13.15
2022-09-30T15:10:24.387Z,12.68
2022-09-30T15:12:52.552Z,6.95
2022-09-30T15:15:35.162Z,7.00
2022-09-30T15:18:24.134Z,8.18
2022-09-30T15:20:55.087Z,5.35
2022-09-30T15:23:26.349Z,7.90
2022-09-30T15:25:53.899Z,5.55
2022-09-30T15:28:24.211Z,8.27
2022-09-30T15:30:54.206Z,7.90
2022-09-30T15:33:24.989Z,7.75
2022-09-30T15:35:53.273Z,6.72
2022-09-30T15:38:25.139Z,9.18
2022-09-30T15:40:59.657Z,5.85
2022-09-30T15:43:46.036Z,5.93
2022-09-30T15:46:23.485Z,6.07
2022-09-30T15:48:50.128Z,5.45
2022-09-30T15:51:25.498Z,4.43
2022-09-30T15:53:52.173Z,4.63
2022-09-30T15:56:19.720Z,5.82
2022-09-30T15:59:03.094Z,5.78
2022-09-30T16:01:39.872Z,6.43
2022-09-30T16:04:26.315Z,5.47
2022-09-30T16:06:57.188Z,7.10
2022-09-30T16:09:41.693Z,8.40
2022-09-30T16:12:18.244Z,5.55
2022-09-30T16:14:51.094Z,5.80
2022-09-30T16:17:21.128Z,6.70
2022-09-30T16:19:52.003Z,9.38
2022-09-30T16:22:52.029Z,8.90
2022-09-30T16:25:27.926Z,8.48
2022-09-30T16:27:59.295Z,8.93
2022-09-30T16:30:27.264Z,9.65
2022-09-30T16:32:58.373Z,9.82
2022-09-30T16:35:28.564Z,8.52
2022-09-30T16:38:06.794Z,10.38
2022-09-30T16:40:37.090Z,14.38
2022-09-30T16:43:07.596Z,10.77
2022-09-30T16:45:35.133Z,11.00
2022-09-30T16:48:02.644Z,9.70
2022-09-30T16:50:59.738Z,10.27
2022-09-30T16:53:26.367Z,11.75
2022-09-30T16:55:52.935Z,8.40
2022-09-30T16:58:19.870Z,11.75
2022-09-30T17:00:46.617Z,6.05
2022-09-30T17:03:15.351Z,5.18
2022-09-30T17:05:44.870Z,6.65
2022-09-30T17:08:14.581Z,8.05
2022-09-30T17:10:43.780Z,8.73
2022-09-30T17:13:10.817Z,11.07
2022-09-30T17:15:37.448Z,6.18
2022-09-30T17:18:07.915Z,4.35
2022-09-30T17:20:36.078Z,6.70
2022-09-30T17:23:07.109Z,6.93
2022-09-30T17:25:34.454Z,6.47
2022-09-30T17:28:01.426Z,7.85
2022-09-30T17:30:28.086Z,9.38
2022-09-30T17:32:54.694Z,8.50
2022-09-30T17:35:22.623Z,5.65
2022-09-30T17:37:49.871Z,8.25
2022-09-30T17:40:32.044Z,4.85
2022-09-30T17:43:13.854Z,11.13
2022-09-30T17:45:43.237Z,19.45
2022-09-30T17:48:11.660Z,5.55
2022-09-30T17:50:42.377Z,6.68
2022-09-30T17:53:09.141Z,7.22
2022-09-30T17:55:35.770Z,7.13
2022-09-30T17:58:03.266Z,14.05
2022-09-30T18:00:31.142Z,9.00
2022-09-30T18:02:57.969Z,7.22
2022-09-30T18:05:26.318Z,7.88
2022-09-30T18:07:53.095Z,15.52
2022-09-30T18:10:19.918Z,4.78
2022-09-30T18:12:49.372Z,7.20
2022-09-30T18:15:16.941Z,8.93
2022-09-30T18:17:44.480Z,7.85
2022-09-30T18:20:11.825Z,6.88
2022-09-30T18:22:38.795Z,8.00
2022-09-30T18:25:21.567Z,5.20
2022-09-30T18:27:50.848Z,9.70
2022-09-30T18:30:20.109Z,5.68
2022-09-30T18:32:49.512Z,8.13
2022-09-30T18:35:20.449Z,9.25
2022-09-30T18:37:49.718Z,6.55
2022-09-30T18:40:18.245Z,6.57
2022-09-30T18:42:45.244Z,12.35
2022-09-30T18:45:13.073Z,8.15
2022-09-30T18:47:42.437Z,9.98
2022-09-30T18:50:10.454Z,12.65
2022-09-30T18:52:37.425Z,8.23
2022-09-30T18:55:04.398Z,7.65
2022-09-30T18:57:32.509Z,10.10
2022-09-30T18:59:59.128Z,8.07
2022-09-30T19:02:27.224Z,13.00
2022-09-30T19:04:57.937Z,10.32
2022-09-30T19:07:29.440Z,10.65
2022-09-30T19:09:59.240Z,7.95
2022-09-30T19:12:27.506Z,6.13
2022-09-30T19:14:55.400Z,10.48
2022-09-30T19:17:21.999Z,12.63
2022-09-30T19:19:50.722Z,9.45
2022-09-30T19:22:17.270Z,7.63
2022-09-30T19:24:43.887Z,7.47
2022-09-30T19:27:11.314Z,7.80
2022-09-30T19:29:39.220Z,9.63
2022-09-30T19:32:09.550Z,13.93
2022-09-30T19:34:37.008Z,8.13
2022-09-30T19:37:03.612Z,10.82
2022-09-30T19:39:42.982Z,23.98
2022-09-30T19:42:13.479Z,9.40
2022-09-30T19:44:40.111Z,8.27
2022-09-30T19:47:06.781Z,11.30
2022-09-30T19:49:33.349Z,7.85
2022-09-30T19:52:07.214Z,10.68
2022-09-30T19:54:41.811Z,7.38
2022-09-30T19:57:08.662Z,8.75
2022-09-30T19:59:35.225Z,8.90
2022-09-30T20:02:01.891Z,8.60
2022-09-30T20:04:30.056Z,7.95
2022-09-30T20:06:56.622Z,14.35
2022-09-30T20:09:24.283Z,9.75
2022-09-30T20:11:51.041Z,8.38
2022-09-30T20:14:32.871Z,7.78
2022-09-30T20:16:59.444Z,7.97
2022-09-30T20:19:26.038Z,11.07
2022-09-30T20:21:54.448Z,7.85
2022-09-30T20:24:21.494Z,10.85
2022-09-30T20:26:48.597Z,9.70
2022-09-30T20:29:15.599Z,10.65
2022-09-30T20:31:43.177Z,7.82
2022-09-30T20:34:13.216Z,14.98
2022-09-30T20:36:40.619Z,10.63
2022-09-30T20:39:08.049Z,13.05
2022-09-30T20:41:37.043Z,10.27
2022-09-30T20:44:12.105Z,11.80
2022-09-30T20:46:41.440Z,9.10
2022-09-30T20:49:08.205Z,12.65
2022-09-30T20:51:35.137Z,11.25
2022-09-30T20:54:02.261Z,12.82
2022-09-30T20:56:44.085Z,11.10
2022-09-30T20:59:17.161Z,15.13
2022-09-30T21:01:43.805Z,12.02
2022-09-30T21:04:10.513Z,12.18
2022-09-30T21:06:37.085Z,12.48
2022-09-30T21:09:03.857Z,13.45
2022-09-30T21:11:30.832Z,12.77
2022-09-30T21:13:58.037Z,13.43
2022-09-30T21:16:25.506Z,17.98
2022-09-30T21:18:53.311Z,12.05
2022-09-30T21:21:21.967Z,14.68
2022-09-30T21:23:49.064Z,13.43
2022-09-30T21:26:17.381Z,14.70
2022-09-30T21:28:49.203Z,11.65
2022-09-30T21:31:26.641Z,18.27
2022-09-30T21:33:56.352Z,13.43
2022-09-30T21:36:23.498Z,12.18
2022-09-30T21:38:50.786Z,12.25
2022-09-30T21:41:17.865Z,14.77
2022-09-30T21:43:44.563Z,9.95
2022-09-30T21:46:13.540Z,14.48
2022-09-30T21:48:40.908Z,20.58
2022-09-30T21:51:08.552Z,14.52
2022-09-30T21:53:35.492Z,8.98
2022-09-30T21:56:03.546Z,13.05
2022-09-30T21:58:32.573Z,13.48
2022-09-30T22:01:02.269Z,12.07
2022-09-30T22:03:31.756Z,8.48
2022-09-30T22:05:59.086Z,10.25
2022-09-30T22:08:26.496Z,17.50
2022-09-30T22:10:53.256Z,15.52
2022-09-30T22:13:19.846Z,13.65
2022-09-30T22:15:47.473Z,17.92
2022-09-30T22:18:17.333Z,16.88
2022-09-30T22:20:45.101Z,12.13
2022-09-30T22:23:12.256Z,13.73
2022-09-30T22:25:39.093Z,18.70
2022-09-30T22:28:05.921Z,12.93
2022-09-30T22:30:33.138Z,11.60
2022-09-30T22:33:14.918Z,15.23
2022-09-30T22:35:56.749Z,16.58
2022-09-30T22:38:23.948Z,10.85
2022-09-30T22:40:55.594Z,11.65
2022-09-30T22:43:23.618Z,11.65
2022-09-30T22:46:02.955Z,12.00
2022-09-30T22:48:31.182Z,17.92
2022-09-30T22:50:58.895Z,10.93
2022-09-30T22:53:26.425Z,13.60
2022-09-30T22:55:53.642Z,11.43
2022-09-30T22:58:23.294Z,15.00
2022-09-30T23:00:53.821Z,11.10
2022-09-30T23:03:20.527Z,11.48
2022-09-30T23:05:47.507Z,12.75
2022-09-30T23:08:17.590Z,8.77
2022-09-30T23:10:49.846Z,7.65
2022-09-30T23:13:17.623Z,13.10
2022-09-30T23:15:44.128Z,8.45
2022-09-30T23:18:10.762Z,19.55
2022-09-30T23:20:37.481Z,9.13
2022-09-30T23:23:04.122Z,15.75
2022-09-30T23:25:31.584Z,17.58
2022-09-30T23:27:58.279Z,15.52
2022-09-30T23:30:25.108Z,13.98
2022-09-30T23:32:51.727Z,12.52
2022-09-30T23:35:18.429Z,15.88
2022-09-30T23:37:46.575Z,10.35
2022-09-30T23:40:13.419Z,13.15
2022-09-30T23:42:40.031Z,8.52
2022-09-30T23:45:07.148Z,12.73
2022-09-30T23:47:34.405Z,10.13
2022-09-30T23:50:00.993Z,15.35
2022-09-30T23:52:27.804Z,13.18
2022-09-30T23:54:54.503Z,11.93
2022-09-30T23:57:21.100Z,9.18
2022-09-30T23:59:47.879Z,8.40
